Time;durP1;ratioP1;P1;durP2;ratioP2;P2;SDS_P1;SDS_P2;PMS_P1;PMS_P2;Temp;Humidity;BMP_temperature;BMP_pressure;BME280_temperature;BME280_humidity;BME280_pressure;Samples;Min_cycle;Max_cycle;Signal;HPM_P1;HPM_P2
2020/12/26 00:00:11;;;;;;;6.50;4.30;;;;;;;-1.55;96.18;96330.66;1020872;29;20031;-69
2020/12/26 00:00:42;;;;;;;4.03;3.50;;;;;;;-1.59;96.32;96326.84;1022439;28;20210;-67
2020/12/26 00:01:19;;;;;;;4.57;3.43;;;;;;;-1.62;96.46;96316.88;1030394;28;20502;-69
2020/12/26 00:01:49;;;;;;;6.18;4.10;;;;;;;-1.57;96.56;96330.84;1026662;28;20129;-69
2020/12/26 00:02:21;;;;;;;6.23;4.00;;;;;;;-1.56;96.83;96322.16;1026497;28;20030;-68
2020/12/26 00:02:51;;;;;;;6.63;4.20;;;;;;;-1.56;96.82;96329.06;1022253;29;20063;-68
2020/12/26 00:03:22;;;;;;;7.00;4.07;;;;;;;-1.57;97.34;96324.91;1023734;28;20031;-68
2020/12/26 00:03:52;;;;;;;6.53;4.27;;;;;;;-1.59;97.18;96325.06;1030256;28;20029;-69
2020/12/26 00:04:22;;;;;;;4.97;4.10;;;;;;;-1.60;97.74;96320.09;1026417;28;20049;-73
2020/12/26 00:04:53;;;;;;;6.43;4.70;;;;;;;-1.66;97.37;96314.66;1030697;28;20022;-69
2020/12/26 00:05:24;;;;;;;5.53;4.10;;;;;;;-1.61;97.47;96321.88;1026365;28;20019;-68
2020/12/26 00:05:54;;;;;;;6.27;4.00;;;;;;;-1.62;97.75;96322.81;1030457;28;20021;-68
2020/12/26 00:06:25;;;;;;;5.63;4.20;;;;;;;-1.63;97.71;96315.28;1030209;28;20816;-70
2020/12/26 00:06:55;;;;;;;8.13;4.60;;;;;;;-1.62;97.85;96320.25;1030721;28;20030;-68
2020/12/26 00:07:25;;;;;;;7.83;5.10;;;;;;;-1.64;97.99;96321.38;1030453;28;20053;-67
2020/12/26 00:07:56;;;;;;;6.97;4.40;;;;;;;-1.66;97.96;96321.56;1030502;28;20026;-72
2020/12/26 00:08:26;;;;;;;5.13;4.03;;;;;;;-1.69;98.17;96322.72;1034623;28;20148;-72
2020/12/26 00:08:57;;;;;;;6.07;4.27;;;;;;;-1.67;98.38;96318.22;1029888;28;20030;-68
2020/12/26 00:09:27;;;;;;;6.60;4.53;;;;;;;-1.66;97.95;96322.38;1030346;28;20697;-69
2020/12/26 00:09:58;;;;;;;7.57;4.80;;;;;;;-1.73;97.82;96311.16;1026379;28;20694;-69
2020/12/26 00:10:28;;;;;;;7.60;5.07;;;;;;;-1.69;97.89;96315.00;1022356;28;20065;-68
2020/12/26 00:10:59;;;;;;;7.93;4.90;;;;;;;-1.69;98.21;96309.84;1022347;28;20037;-69
2020/12/26 00:11:29;;;;;;;7.57;4.83;;;;;;;-1.68;98.04;96313.22;1022746;29;20023;-71
2020/12/26 00:12:00;;;;;;;7.73;5.20;;;;;;;-1.71;98.29;96308.41;1030322;28;20070;-65
2020/12/26 00:12:30;;;;;;;8.73;5.67;;;;;;;-1.70;98.19;96313.41;1034508;28;20025;-69
2020/12/26 00:13:01;;;;;;;7.50;5.50;;;;;;;-1.70;97.88;96315.19;1026406;28;20113;-70
2020/12/26 00:13:31;;;;;;;8.93;5.63;;;;;;;-1.73;98.40;96316.31;1026736;28;20031;-66
2020/12/26 00:14:02;;;;;;;6.83;5.20;;;;;;;-1.73;98.42;96313.75;1029940;28;21209;-67
2020/12/26 00:14:32;;;;;;;11.27;5.80;;;;;;;-1.72;98.54;96311.97;1026566;28;20030;-68
2020/12/26 00:15:03;;;;;;;8.63;5.27;;;;;;;-1.78;98.86;96313.44;1030279;28;20109;-68
2020/12/26 00:15:33;;;;;;;8.80;5.63;;;;;;;-1.75;98.68;96325.16;1025313;28;20019;-68
2020/12/26 00:16:07;;;;;;;8.20;5.77;;;;;;;-1.86;98.75;96305.00;1023114;28;20027;-66
2020/12/26 00:16:38;;;;;;;7.75;5.28;;;;;;;-1.75;98.71;96323.38;1026617;28;20023;-66
2020/12/26 00:17:08;;;;;;;10.53;6.10;;;;;;;-1.75;99.01;96323.38;1026057;28;20038;-68
2020/12/26 00:17:39;;;;;;;8.40;5.80;;;;;;;-1.71;99.11;96318.69;1026125;28;20022;-72
2020/12/26 00:18:10;;;;;;;9.87;6.07;;;;;;;-1.73;99.40;96321.47;1026443;28;20161;-69
2020/12/26 00:18:41;;;;;;;10.20;6.43;;;;;;;-1.78;99.43;96316.00;1022453;28;20173;-67
2020/12/26 00:19:15;;;;;;;12.18;5.60;;;;;;;-1.72;99.45;96322.25;1021717;28;20110;-69
2020/12/26 00:19:45;;;;;;;9.73;5.70;;;;;;;-1.82;99.56;96307.03;1023546;28;20090;-68
2020/12/26 00:20:18;;;;;;;10.80;6.20;;;;;;;-1.74;99.31;96319.88;1017349;29;20086;-67
2020/12/26 00:20:49;;;;;;;9.85;6.15;;;;;;;-1.73;99.44;96326.59;1020565;28;20091;-68
2020/12/26 00:21:19;;;;;;;9.93;6.47;;;;;;;-1.71;99.91;96327.25;1026253;28;20093;-68
2020/12/26 00:21:50;;;;;;;10.83;5.90;;;;;;;-1.70;99.64;96325.47;1027430;28;20256;-69
2020/12/26 00:22:21;;;;;;;9.20;6.07;;;;;;;-1.73;99.32;96326.59;1030831;28;20157;-68
2020/12/26 00:22:51;;;;;;;13.03;5.47;;;;;;;-1.71;99.42;96326.41;1026772;28;20448;-68
2020/12/26 00:23:22;;;;;;;9.80;5.63;;;;;;;-1.70;99.78;96321.13;1027811;28;20030;-67
2020/12/26 00:23:52;;;;;;;9.80;6.13;;;;;;;-1.80;99.57;96305.13;1026833;28;20133;-68
2020/12/26 00:24:23;;;;;;;13.50;6.40;;;;;;;-1.69;99.52;96333.00;1018503;28;20087;-68
2020/12/26 00:24:53;;;;;;;8.27;5.57;;;;;;;-1.78;100.00;96313.44;1022518;29;20445;-69
2020/12/26 00:25:23;;;;;;;9.77;6.17;;;;;;;-1.67;100.00;96331.06;1022954;28;20030;-68
2020/12/26 00:25:54;;;;;;;8.70;5.63;;;;;;;-1.76;99.96;96315.84;1027008;28;20682;-68
2020/12/26 00:26:24;;;;;;;10.63;6.27;;;;;;;-1.69;99.70;96333.00;1030780;28;20018;-69
2020/12/26 00:26:56;;;;;;;11.83;6.17;;;;;;;-1.70;100.00;96331.41;1025261;28;20023;-68
2020/12/26 00:27:27;;;;;;;7.28;5.75;;;;;;;-1.69;100.00;96327.84;1021799;28;20523;-68
2020/12/26 00:27:57;;;;;;;10.27;6.45;;;;;;;-1.69;100.00;96333.00;1019114;29;20032;-67
2020/12/26 00:28:28;;;;;;;9.10;6.10;;;;;;;-1.71;100.00;96329.81;1018982;29;20028;-68
2020/12/26 00:28:58;;;;;;;8.40;5.70;;;;;;;-1.70;100.00;96328.03;1018228;28;20024;-67
2020/12/26 00:29:29;;;;;;;9.63;6.23;;;;;;;-1.69;100.00;96327.84;1027086;28;20398;-69
2020/12/26 00:29:59;;;;;;;9.67;6.00;;;;;;;-1.70;100.00;96331.41;1026654;28;20070;-70
2020/12/26 00:30:30;;;;;;;9.50;6.20;;;;;;;-1.70;100.00;96328.84;1026275;28;20746;-67
2020/12/26 00:31:01;;;;;;;9.10;6.53;;;;;;;-1.72;100.00;96328.19;1030719;28;20104;-66
2020/12/26 00:31:32;;;;;;;10.70;6.40;;;;;;;-1.77;100.00;96320.22;1026774;28;20026;-67
2020/12/26 00:32:02;;;;;;;11.10;6.83;;;;;;;-1.74;100.00;96332.72;1026780;28;20077;-67
2020/12/26 00:32:35;;;;;;;9.90;6.17;;;;;;;-1.74;100.00;96330.16;1025583;28;20026;-68
2020/12/26 00:33:06;;;;;;;9.68;6.38;;;;;;;-1.76;100.00;96332.09;1027082;28;20046;-67
2020/12/26 00:33:36;;;;;;;11.53;7.03;;;;;;;-1.85;100.00;96311.72;1031225;28;20022;-70
2020/12/26 00:34:07;;;;;;;10.63;6.60;;;;;;;-1.77;100.00;96335.63;1030515;28;20031;-68
2020/12/26 00:34:38;;;;;;;8.47;6.60;;;;;;;-1.87;100.00;96319.63;1030649;28;20472;-68
2020/12/26 00:35:08;;;;;;;10.18;6.45;;;;;;;-1.79;100.00;96329.06;1026129;28;20027;-67
2020/12/26 00:35:39;;;;;;;10.73;6.80;;;;;;;-1.84;100.00;96324.44;1022466;29;20027;-68
2020/12/26 00:36:09;;;;;;;10.43;6.43;;;;;;;-1.84;100.00;96321.06;1022898;28;20683;-66
2020/12/26 00:36:40;;;;;;;11.90;7.70;;;;;;;-1.90;100.00;96327.69;1022360;29;20027;-68
2020/12/26 00:37:10;;;;;;;10.97;7.60;;;;;;;-1.85;100.00;96330.53;1022766;28;20027;-68
2020/12/26 00:37:41;;;;;;;10.60;7.30;;;;;;;-1.84;100.00;96333.94;1021975;29;20065;-68
2020/12/26 00:38:11;;;;;;;10.87;6.77;;;;;;;-1.85;100.00;96333.09;1022875;28;20075;-69
2020/12/26 00:38:42;;;;;;;9.53;6.97;;;;;;;-1.93;100.00;96317.72;1026087;28;20022;-67
2020/12/26 00:39:12;;;;;;;9.33;6.30;;;;;;;-1.83;100.00;96336.31;1026335;28;20045;-67
2020/12/26 00:39:43;;;;;;;13.63;7.07;;;;;;;-1.85;100.00;96335.66;1022679;28;20031;-69
2020/12/26 00:40:13;;;;;;;10.53;6.80;;;;;;;-1.83;100.00;96340.66;1022757;28;20066;-68
2020/12/26 00:40:44;;;;;;;9.40;6.53;;;;;;;-1.83;100.00;96341.47;1022867;28;20042;-70
2020/12/26 00:41:14;;;;;;;9.07;6.97;;;;;;;-1.85;100.00;96334.88;1026527;28;20019;-67
2020/12/26 00:41:45;;;;;;;10.90;6.50;;;;;;;-1.90;100.00;96330.25;1016724;29;20449;-66
2020/12/26 00:42:16;;;;;;;10.35;6.90;;;;;;;-1.85;100.00;96338.25;1018783;29;20023;-68
2020/12/26 00:42:46;;;;;;;9.00;6.63;;;;;;;-1.85;100.00;96343.38;1021422;29;20027;-69
2020/12/26 00:43:17;;;;;;;9.50;6.90;;;;;;;-1.86;100.00;96343.56;1018630;29;20027;-68
2020/12/26 00:43:47;;;;;;;8.83;6.87;;;;;;;-1.96;100.00;96326.56;1023009;28;20073;-69
2020/12/26 00:44:18;;;;;;;10.07;6.67;;;;;;;-1.85;100.00;96340.81;1021952;29;20569;-70
2020/12/26 00:44:48;;;;;;;10.60;7.50;;;;;;;-1.87;100.00;96337.63;1022923;28;20027;-69
2020/12/26 00:45:19;;;;;;;11.17;7.47;;;;;;;-1.86;100.00;96336.66;1026086;28;20026;-68
2020/12/26 00:45:49;;;;;;;9.30;6.87;;;;;;;-1.87;100.00;96340.19;1022251;28;20682;-69
2020/12/26 00:46:21;;;;;;;10.00;6.87;;;;;;;-1.88;100.00;96336.00;1030665;28;20069;-67
2020/12/26 00:46:51;;;;;;;8.98;6.60;;;;;;;-1.85;100.00;96343.38;1027010;28;20035;-67
2020/12/26 00:47:25;;;;;;;8.63;6.63;;;;;;;-1.83;100.00;96341.47;1026356;28;20464;-66
2020/12/26 00:47:55;;;;;;;11.30;7.20;;;;;;;-1.82;100.00;96348.19;1022775;29;20034;-67
2020/12/26 00:48:26;;;;;;;9.03;6.97;;;;;;;-1.81;100.00;96349.00;1023183;28;20042;-67
2020/12/26 00:48:56;;;;;;;10.90;7.63;;;;;;;-1.82;100.00;96348.19;1026258;28;20499;-71
2020/12/26 00:49:26;;;;;;;12.30;7.17;;;;;;;-1.83;100.00;96346.59;1026484;28;20042;-70
2020/12/26 00:49:57;;;;;;;11.27;7.33;;;;;;;-1.82;100.00;96345.63;1030775;28;20018;-69
2020/12/26 00:50:27;;;;;;;10.10;7.20;;;;;;;-1.82;100.00;96345.63;1022649;28;20567;-67
2020/12/26 00:50:58;;;;;;;11.23;7.60;;;;;;;-1.91;100.00;96337.16;1021943;28;20082;-68
2020/12/26 00:51:28;;;;;;;12.50;7.63;;;;;;;-1.82;100.00;96350.75;1022588;29;20027;-67
2020/12/26 00:51:59;;;;;;;10.57;7.10;;;;;;;-1.91;100.00;96338.94;1022642;29;20023;-67
2020/12/26 00:52:29;;;;;;;8.50;6.63;;;;;;;-1.86;100.00;96352.09;1022334;29;20090;-70
2020/12/26 00:53:00;;;;;;;10.43;7.40;;;;;;;-1.95;100.00;96333.31;1022616;29;20039;-67
2020/12/26 00:53:30;;;;;;;10.60;7.20;;;;;;;-1.85;100.00;96350.31;1018549;29;20059;-70
2020/12/26 00:54:01;;;;;;;12.33;7.23;;;;;;;-1.87;100.00;96347.91;1019492;28;20066;-68
2020/12/26 00:54:31;;;;;;;11.63;7.50;;;;;;;-1.88;100.00;96348.06;1030791;28;20027;-67
2020/12/26 00:55:02;;;;;;;10.20;7.13;;;;;;;-1.87;100.00;96352.25;1026490;28;20035;-70
2020/12/26 00:55:33;;;;;;;10.27;6.97;;;;;;;-1.86;100.00;96346.94;1018651;29;20038;-67
2020/12/26 00:56:03;;;;;;;9.90;7.70;;;;;;;-1.92;100.00;96338.13;1018339;29;20540;-67
2020/12/26 00:56:37;;;;;;;10.97;7.37;;;;;;;-1.86;100.00;96346.94;1019220;29;20040;-69
2020/12/26 00:57:07;;;;;;;12.10;7.63;;;;;;;-1.89;100.00;96349.84;1023221;28;20032;-67
2020/12/26 00:57:42;;;;;;;10.00;7.57;;;;;;;-1.91;100.00;96344.88;1022728;28;20464;-69
2020/12/26 00:58:12;;;;;;;9.77;7.45;;;;;;;-1.87;100.00;96349.69;1019796;29;20131;-69
2020/12/26 00:58:42;;;;;;;10.73;7.30;;;;;;;-1.87;100.00;96349.69;1018081;29;20038;-69
2020/12/26 00:59:13;;;;;;;11.00;7.80;;;;;;;-1.97;100.00;96332.69;1017173;29;20038;-72
2020/12/26 00:59:43;;;;;;;13.40;7.73;;;;;;;-1.91;100.00;96349.22;1014811;29;20102;-69
2020/12/26 01:00:14;;;;;;;10.93;7.73;;;;;;;-1.91;100.00;96341.53;1022878;28;20031;-67
2020/12/26 01:00:44;;;;;;;11.80;7.87;;;;;;;-1.89;100.00;96347.28;1030790;28;20030;-69
2020/12/26 01:01:15;;;;;;;9.97;7.53;;;;;;;-1.88;100.00;96348.06;1026675;28;20089;-67
2020/12/26 01:01:45;;;;;;;13.77;7.80;;;;;;;-1.88;100.00;96343.72;1022478;29;20015;-67
2020/12/26 01:02:16;;;;;;;13.07;7.93;;;;;;;-1.97;100.00;96331.91;1018907;29;20087;-69
2020/12/26 01:02:46;;;;;;;10.87;7.67;;;;;;;-1.92;100.00;96343.25;1018037;29;20107;-66
2020/12/26 01:03:17;;;;;;;11.47;7.87;;;;;;;-1.91;100.00;96344.88;1022893;28;20497;-70
2020/12/26 01:03:47;;;;;;;10.17;7.07;;;;;;;-1.90;100.00;96345.69;1031054;28;20030;-67
2020/12/26 01:04:18;;;;;;;10.03;7.80;;;;;;;-1.98;100.00;96338.81;1024596;28;20030;-66
2020/12/26 01:04:48;;;;;;;12.17;8.00;;;;;;;-1.92;100.00;96350.97;1023120;29;20030;-68
2020/12/26 01:05:19;;;;;;;13.07;8.13;;;;;;;-1.96;100.00;96351.50;1022718;28;20078;-70
2020/12/26 01:05:49;;;;;;;11.30;7.47;;;;;;;-1.98;100.00;96333.69;1014781;28;20062;-68
2020/12/26 01:06:20;;;;;;;14.63;7.73;;;;;;;-1.94;100.00;96349.56;1015090;29;20040;-69
2020/12/26 01:06:56;;;;;;;10.47;7.97;;;;;;;-2.03;100.00;96328.22;1014950;29;20039;-67
2020/12/26 01:07:27;;;;;;;11.80;7.53;;;;;;;-1.95;100.00;96346.16;1019076;29;20410;-69
2020/12/26 01:07:57;;;;;;;11.93;7.37;;;;;;;-2.02;100.00;96332.38;1023622;28;20042;-71
2020/12/26 01:08:28;;;;;;;12.47;7.90;;;;;;;-1.99;100.00;96338.97;1026662;28;20468;-67
2020/12/26 01:08:58;;;;;;;11.77;8.43;;;;;;;-1.96;100.00;96346.34;1025962;28;20033;-67
2020/12/26 01:09:29;;;;;;;12.60;8.43;;;;;;;-2.00;100.00;96334.81;1022423;28;20035;-70
2020/12/26 01:09:59;;;;;;;11.70;7.90;;;;;;;-1.97;100.00;96337.84;1022590;28;20146;-68
2020/12/26 01:10:29;;;;;;;10.53;7.57;;;;;;;-2.05;100.00;96331.94;1026758;28;20753;-67
2020/12/26 01:11:00;;;;;;;12.70;8.10;;;;;;;-1.98;100.00;96343.13;1026730;28;20035;-70
2020/12/26 01:11:30;;;;;;;11.37;7.30;;;;;;;-1.98;100.00;96343.13;1026715;28;20106;-66
2020/12/26 01:12:01;;;;;;;10.83;7.53;;;;;;;-2.03;100.00;96337.72;1018682;29;20035;-69
2020/12/26 01:12:31;;;;;;;10.80;7.83;;;;;;;-2.02;100.00;96340.09;1018606;29;20027;-65
2020/12/26 01:13:02;;;;;;;12.70;8.30;;;;;;;-2.05;100.00;96329.34;1022501;29;20124;-68
2020/12/26 01:13:33;;;;;;;10.57;7.80;;;;;;;-2.11;100.00;96323.13;1018803;29;20094;-69
2020/12/26 01:14:03;;;;;;;13.20;8.57;;;;;;;-1.99;100.00;96344.91;1018334;29;20110;-68
2020/12/26 01:14:34;;;;;;;12.37;8.00;;;;;;;-1.97;100.00;96342.19;1018690;28;20027;-66
2020/12/26 01:15:04;;;;;;;10.50;7.67;;;;;;;-1.96;100.00;96336.88;1026833;28;20030;-69
2020/12/26 01:15:35;;;;;;;11.57;7.77;;;;;;;-1.96;100.00;96338.63;1026711;28;20034;-71
2020/12/26 01:16:05;;;;;;;11.10;7.43;;;;;;;-2.01;100.00;96336.59;1033497;28;20068;-68
2020/12/26 01:16:35;;;;;;;10.33;7.40;;;;;;;-2.13;100.00;96320.72;1022513;29;20035;-67
2020/12/26 01:17:06;;;;;;;12.90;8.20;;;;;;;-2.02;100.00;96336.72;1018621;29;20027;-69
2020/12/26 01:17:36;;;;;;;15.50;8.57;;;;;;;-2.03;100.00;96341.09;1018661;29;20044;-71
2020/12/26 01:18:07;;;;;;;15.30;8.40;;;;;;;-2.05;100.00;96334.50;1018333;29;20114;-67
2020/12/26 01:18:38;;;;;;;12.20;8.37;;;;;;;-2.05;100.00;96331.94;1018753;28;20027;-67
2020/12/26 01:19:08;;;;;;;17.67;8.80;;;;;;;-2.08;100.00;96333.06;1030038;28;20044;-68
2020/12/26 01:19:39;;;;;;;12.83;8.17;;;;;;;-2.08;100.00;96332.25;1030462;28;20431;-70
2020/12/26 01:20:09;;;;;;;11.10;7.93;;;;;;;-2.13;100.00;96336.16;1034790;28;20115;-68
2020/12/26 01:20:40;;;;;;;11.87;8.50;;;;;;;-2.11;100.00;96332.59;1030380;28;20027;-67
2020/12/26 01:21:13;;;;;;;15.30;8.73;;;;;;;-2.13;100.00;96337.91;1030314;28;20030;-67
2020/12/26 01:21:50;;;;;;;14.43;8.43;;;;;;;-2.18;100.00;96335.88;1030426;28;20152;-68
2020/12/26 01:22:21;;;;;;;12.27;8.85;;;;;;;-2.18;100.00;96341.00;1030530;28;20108;-69
2020/12/26 01:22:51;;;;;;;12.63;9.07;;;;;;;-2.20;100.00;96339.56;1030239;28;20100;-70
2020/12/26 01:23:22;;;;;;;14.63;9.23;;;;;;;-2.26;100.00;96333.31;1022392;28;20042;-68
2020/12/26 01:23:52;;;;;;;15.63;8.97;;;;;;;-2.31;100.00;96332.19;1023030;28;20042;-66
2020/12/26 01:24:23;;;;;;;12.30;8.93;;;;;;;-2.21;100.00;96349.06;1030438;28;20042;-69
2020/12/26 01:24:53;;;;;;;13.40;9.27;;;;;;;-2.24;100.00;96346.81;1027097;28;20370;-69
2020/12/26 01:25:24;;;;;;;11.90;8.73;;;;;;;-2.24;100.00;96346.81;1026766;28;20056;-67
2020/12/26 01:25:54;;;;;;;11.17;9.10;;;;;;;-2.25;100.00;96346.97;1030932;28;20428;-69
2020/12/26 01:26:25;;;;;;;13.03;8.97;;;;;;;-2.28;100.00;96342.16;1028472;28;20041;-69
2020/12/26 01:26:55;;;;;;;12.63;8.63;;;;;;;-2.38;100.00;96332.09;1026518;28;20034;-70
2020/12/26 01:27:26;;;;;;;12.97;8.73;;;;;;;-2.32;100.00;96341.69;1026477;28;20027;-67
2020/12/26 01:27:56;;;;;;;12.87;8.90;;;;;;;-2.30;100.00;96346.69;1026487;28;20035;-72
2020/12/26 01:28:27;;;;;;;12.47;8.63;;;;;;;-2.33;100.00;96350.38;1026673;28;20715;-69
2020/12/26 01:28:58;;;;;;;12.60;9.43;;;;;;;-2.33;100.00;96345.22;1025319;28;20948;-67
2020/12/26 01:29:28;;;;;;;12.37;9.07;;;;;;;-2.35;100.00;96346.34;1026751;28;20361;-68
2020/12/26 01:29:58;;;;;;;14.67;8.93;;;;;;;-2.36;100.00;96348.13;1023591;28;20042;-68
2020/12/26 01:30:29;;;;;;;13.40;9.17;;;;;;;-2.37;100.00;96352.47;1022567;28;20097;-71
2020/12/26 01:30:59;;;;;;;12.73;8.93;;;;;;;-2.38;100.00;96347.50;1026152;28;20042;-70
2020/12/26 01:31:30;;;;;;;15.33;9.60;;;;;;;-2.39;100.00;96356.16;1026625;28;20065;-69
2020/12/26 01:32:00;;;;;;;11.90;8.37;;;;;;;-2.41;100.00;96345.28;1026507;28;20026;-66
2020/12/26 01:32:31;;;;;;;12.60;8.10;;;;;;;-2.39;100.00;96346.69;1024977;28;20063;-68
2020/12/26 01:33:02;;;;;;;15.87;8.73;;;;;;;-2.40;100.00;96352.00;1030327;28;20034;-67
2020/12/26 01:33:32;;;;;;;13.43;8.77;;;;;;;-2.59;100.00;96314.66;1026095;28;20278;-69
2020/12/26 01:34:03;;;;;;;14.43;8.90;;;;;;;-2.53;100.00;96333.75;1028035;28;20037;-71
2020/12/26 01:34:33;;;;;;;13.07;8.97;;;;;;;-2.41;100.00;96348.63;1027365;28;20543;-68
2020/12/26 01:35:03;;;;;;;13.80;8.73;;;;;;;-2.43;100.00;96350.56;1026430;28;20428;-66
2020/12/26 01:35:34;;;;;;;12.80;8.47;;;;;;;-2.43;100.00;96349.78;1030563;28;20026;-68
2020/12/26 01:36:04;;;;;;;12.37;8.77;;;;;;;-2.44;100.00;96343.03;1026507;28;20096;-69
2020/12/26 01:36:35;;;;;;;12.70;8.57;;;;;;;-2.46;100.00;96350.09;1027778;28;20027;-67
2020/12/26 01:37:05;;;;;;;15.10;9.43;;;;;;;-2.52;100.00;96341.28;1026189;28;20069;-67
2020/12/26 01:37:36;;;;;;;15.60;9.03;;;;;;;-2.50;100.00;96343.69;1022232;28;20051;-69
2020/12/26 01:38:06;;;;;;;16.70;10.03;;;;;;;-2.51;100.00;96345.47;1026310;28;20034;-68
2020/12/26 01:38:37;;;;;;;17.87;9.80;;;;;;;-2.52;100.00;96348.97;1026376;28;20122;-69
2020/12/26 01:39:08;;;;;;;14.10;9.60;;;;;;;-2.54;100.00;96350.13;1025807;28;20034;-67
2020/12/26 01:39:38;;;;;;;12.27;9.00;;;;;;;-2.66;100.00;96329.91;1030276;28;20121;-67
2020/12/26 01:40:10;;;;;;;17.87;9.67;;;;;;;-2.57;100.00;96353.03;1026443;28;20090;-69
2020/12/26 01:40:47;;;;;;;14.65;9.07;;;;;;;-2.57;100.00;96340.19;1026582;28;20128;-66
2020/12/26 01:41:18;;;;;;;12.32;8.43;;;;;;;-2.65;100.00;96341.00;1021727;29;20394;-70
2020/12/26 01:41:52;;;;;;;13.13;8.83;;;;;;;-2.63;100.00;96334.72;1021196;28;20103;-69
2020/12/26 01:42:22;;;;;;;16.00;9.80;;;;;;;-2.57;100.00;96348.69;1027761;28;20026;-69
2020/12/26 01:42:53;;;;;;;15.67;10.00;;;;;;;-2.66;100.00;96335.06;1026875;28;20034;-71
2020/12/26 01:43:24;;;;;;;13.90;9.37;;;;;;;-2.60;100.00;96349.03;1026965;28;20027;-69
2020/12/26 01:43:58;;;;;;;17.33;10.60;;;;;;;-2.69;100.00;96337.94;1026491;28;20014;-69
2020/12/26 01:44:29;;;;;;;15.25;10.75;;;;;;;-2.64;100.00;96345.97;1022995;28;20023;-69
2020/12/26 01:44:59;;;;;;;15.73;10.27;;;;;;;-2.61;100.00;96347.44;1022977;28;20585;-69
2020/12/26 01:45:30;;;;;;;14.03;9.77;;;;;;;-2.64;100.00;96348.56;1026866;28;20038;-69
2020/12/26 01:46:00;;;;;;;18.73;10.93;;;;;;;-2.65;100.00;96346.97;1026461;28;20480;-67
2020/12/26 01:46:31;;;;;;;15.57;10.83;;;;;;;-2.66;100.00;96354.81;1022661;28;20030;-68
2020/12/26 01:47:02;;;;;;;16.05;10.20;;;;;;;-2.68;100.00;96352.41;1026529;28;20061;-70
2020/12/26 01:47:32;;;;;;;15.20;10.53;;;;;;;-2.79;100.00;96332.19;1018364;29;20543;-68
2020/12/26 01:48:03;;;;;;;14.70;10.30;;;;;;;-2.71;100.00;96347.59;1015829;29;20016;-68
2020/12/26 01:48:33;;;;;;;15.43;10.57;;;;;;;-2.73;100.00;96346.97;1022606;29;20015;-69
2020/12/26 01:49:04;;;;;;;17.60;11.27;;;;;;;-2.74;100.00;96347.13;1017583;29;20721;-68
2020/12/26 01:49:34;;;;;;;20.37;10.63;;;;;;;-2.84;100.00;96331.91;1022291;29;20031;-68
2020/12/26 01:50:05;;;;;;;16.20;11.30;;;;;;;-2.76;100.00;96347.28;1018869;29;20023;-70
2020/12/26 01:50:36;;;;;;;16.90;10.73;;;;;;;-2.77;100.00;96348.25;1018601;29;20031;-70
2020/12/26 01:51:06;;;;;;;18.90;10.60;;;;;;;-2.82;100.00;96350.50;1018598;28;20036;-69
2020/12/26 01:51:37;;;;;;;17.07;10.77;;;;;;;-2.77;100.00;96355.97;1018748;28;20028;-68
2020/12/26 01:52:08;;;;;;;17.33;9.53;;;;;;;-2.79;100.00;96350.19;1022487;28;20050;-67
2020/12/26 01:52:39;;;;;;;16.15;10.30;;;;;;;-2.88;100.00;96340.91;1026802;28;20034;-67
2020/12/26 01:53:09;;;;;;;15.47;10.60;;;;;;;-2.81;100.00;96351.31;1016506;29;20039;-69
2020/12/26 01:53:40;;;;;;;17.97;10.47;;;;;;;-2.85;100.00;96349.09;1014732;29;20028;-66
2020/12/26 01:54:10;;;;;;;15.30;10.60;;;;;;;-2.92;100.00;96339.59;1014614;29;20032;-68
2020/12/26 01:54:41;;;;;;;17.93;11.40;;;;;;;-2.88;100.00;96348.59;1018568;29;20401;-66
2020/12/26 01:55:12;;;;;;;22.37;11.17;;;;;;;-2.87;100.00;96350.22;1014424;29;20584;-69
2020/12/26 01:55:42;;;;;;;17.27;11.37;;;;;;;-2.95;100.00;96335.63;1022993;28;20077;-72
2020/12/26 01:56:13;;;;;;;16.73;10.50;;;;;;;-2.99;100.00;96339.47;1026545;28;20034;-72
2020/12/26 01:56:43;;;;;;;17.43;11.30;;;;;;;-2.91;100.00;96349.72;1022250;28;20047;-69
2020/12/26 01:57:14;;;;;;;17.70;11.00;;;;;;;-3.00;100.00;96331.94;1018689;29;20028;-67
2020/12/26 01:57:51;;;;;;;15.87;10.37;;;;;;;-2.95;100.00;96348.47;1014523;29;20060;-69
2020/12/26 01:58:22;;;;;;;17.45;10.85;;;;;;;-3.06;100.00;96328.25;1018200;29;20027;-67
2020/12/26 01:58:52;;;;;;;21.60;11.80;;;;;;;-3.06;100.00;96330.00;1017966;29;20036;-69
2020/12/26 01:59:23;;;;;;;17.00;11.70;;;;;;;-3.02;100.00;96342.34;1019178;29;20036;-69
2020/12/26 01:59:53;;;;;;;18.57;11.77;;;;;;;-3.03;100.00;96337.38;1018394;29;20035;-69
2020/12/26 02:00:24;;;;;;;17.70;10.97;;;;;;;-3.05;100.00;96339.31;1022330;28;20035;-70
2020/12/26 02:00:54;;;;;;;18.03;11.33;;;;;;;-3.09;100.00;96342.19;1022611;28;20031;-66
2020/12/26 02:01:34;;;;;;;17.80;11.10;;;;;;;-3.10;100.00;96338.03;1030297;28;20818;-69
2020/12/26 02:02:07;;;;;;;17.25;11.60;;;;;;;-3.12;100.00;96337.41;1019617;29;20073;-68
2020/12/26 02:02:38;;;;;;;21.10;11.18;;;;;;;-3.19;100.00;96344.13;1023824;28;20077;-68
2020/12/26 02:03:09;;;;;;;17.83;11.50;;;;;;;-3.13;100.00;96338.34;1022572;29;20038;-67
2020/12/26 02:03:42;;;;;;;17.83;12.13;;;;;;;-3.13;100.00;96343.50;1022890;28;20070;-68
2020/12/26 02:04:13;;;;;;;17.23;12.15;;;;;;;-3.19;100.00;96331.28;1026848;28;20069;-68
2020/12/26 02:04:43;;;;;;;15.60;9.97;;;;;;;-3.17;100.00;96347.34;1023325;28;20023;-67
2020/12/26 02:05:14;;;;;;;16.97;11.23;;;;;;;-3.27;100.00;96333.09;1030549;28;20030;-68
2020/12/26 02:05:45;;;;;;;17.02;11.98;;;;;;;-3.21;100.00;96346.06;1024916;28;20050;-68
2020/12/26 02:06:15;;;;;;;17.30;12.23;;;;;;;-3.22;100.00;96351.34;1022554;28;20627;-69
2020/12/26 02:06:52;;;;;;;17.60;11.87;;;;;;;-3.26;100.00;96348.31;1024843;28;20026;-70
2020/12/26 02:07:22;;;;;;;25.77;12.05;;;;;;;-3.30;100.00;96341.91;1018564;29;20653;-68
2020/12/26 02:07:52;;;;;;;21.50;11.53;;;;;;;-3.38;100.00;96335.00;1022858;28;20030;-72
2020/12/26 02:08:23;;;;;;;18.67;11.27;;;;;;;-3.29;100.00;96346.06;1026162;28;20385;-69
2020/12/26 02:08:53;;;;;;;16.23;10.90;;;;;;;-3.32;100.00;96348.94;1017879;29;20074;-68
2020/12/26 02:09:24;;;;;;;19.97;12.13;;;;;;;-3.35;100.00;96344.16;1021841;28;20031;-67
2020/12/26 02:09:55;;;;;;;18.27;11.87;;;;;;;-3.34;100.00;96346.56;1026309;28;20029;-69
2020/12/26 02:10:25;;;;;;;17.67;11.47;;;;;;;-3.45;100.00;96336.63;1026444;28;20381;-67
2020/12/26 02:10:55;;;;;;;21.07;13.40;;;;;;;-3.38;100.00;96349.59;1018601;29;20051;-65
2020/12/26 02:11:27;;;;;;;24.63;12.57;;;;;;;-3.38;100.00;96341.91;1018208;28;20600;-70
2020/12/26 02:11:58;;;;;;;22.90;13.45;;;;;;;-3.37;100.00;96340.94;1022545;29;20055;-67
2020/12/26 02:12:29;;;;;;;24.87;12.67;;;;;;;-3.40;100.00;96343.81;1022151;29;20115;-68
2020/12/26 02:13:00;;;;;;;24.42;14.30;;;;;;;-3.47;100.00;96335.16;1018301;28;20031;-69
2020/12/26 02:13:31;;;;;;;19.27;12.17;;;;;;;-3.48;100.00;96339.50;1015293;29;20036;-67
2020/12/26 02:14:02;;;;;;;23.67;12.70;;;;;;;-3.46;100.00;96340.13;1018256;29;20564;-68
2020/12/26 02:14:33;;;;;;;20.80;13.10;;;;;;;-3.45;100.00;96343.50;1018332;29;20043;-69
2020/12/26 02:15:03;;;;;;;19.10;12.80;;;;;;;-3.54;100.00;96334.22;1019139;28;20031;-68
2020/12/26 02:15:34;;;;;;;20.20;12.53;;;;;;;-3.58;100.00;96334.53;1015657;29;20032;-69
2020/12/26 02:16:13;;;;;;;18.87;11.60;;;;;;;-3.56;100.00;96342.03;1022412;29;20034;-68
2020/12/26 02:16:51;;;;;;;18.35;11.02;;;;;;;-3.57;100.00;96338.69;1025755;28;20027;-67
2020/12/26 02:17:28;;;;;;;19.92;12.38;;;;;;;-3.54;100.00;96352.97;1024654;28;20408;-66
2020/12/26 02:17:58;;;;;;;24.13;12.85;;;;;;;-3.51;100.00;96347.50;1022257;28;20046;-65
2020/12/26 02:18:30;;;;;;;22.73;12.60;;;;;;;-3.44;100.00;96357.94;1025020;28;20442;-68
2020/12/26 02:19:00;;;;;;;23.17;12.50;;;;;;;-3.52;100.00;96345.91;1030745;28;20104;-66
2020/12/26 02:19:31;;;;;;;18.80;12.47;;;;;;;-3.49;100.00;96350.69;1021079;29;20473;-67
2020/12/26 02:20:01;;;;;;;23.47;13.27;;;;;;;-3.48;100.00;96364.34;1018466;29;20048;-66
2020/12/26 02:20:32;;;;;;;24.07;12.73;;;;;;;-3.47;100.00;96359.06;1018990;29;20008;-69
2020/12/26 02:21:02;;;;;;;17.97;11.57;;;;;;;-3.53;100.00;96346.84;1025990;28;20901;-72
2020/12/26 02:21:33;;;;;;;19.97;12.13;;;;;;;-3.42;100.00;96363.69;1023360;28;20098;-69
2020/12/26 02:22:03;;;;;;;18.80;12.17;;;;;;;-3.49;100.00;96353.25;1026393;28;20023;-68
2020/12/26 02:22:34;;;;;;;24.67;13.37;;;;;;;-3.46;100.00;96363.22;1028741;28;20019;-66